createdAt,value
2018-09-10T00:00:59.615Z,1005.98
2018-09-10T00:01:59.593Z,1005.93
2018-09-10T00:02:59.575Z,1005.96
2018-09-10T00:03:59.560Z,1006.01
2018-09-10T00:04:59.542Z,1005.98
2018-09-10T00:05:59.523Z,1005.97
2018-09-10T00:06:59.510Z,1005.96
2018-09-10T00:07:59.487Z,1005.97
2018-09-10T00:08:59.470Z,1005.98
2018-09-10T00:09:59.449Z,1005.93
2018-09-10T00:10:59.434Z,1005.94
2018-09-10T00:11:59.418Z,1005.98
2018-09-10T00:12:59.398Z,1005.97
2018-09-10T00:13:59.378Z,1005.99
2018-09-10T00:14:59.360Z,1005.95
2018-09-10T00:15:59.343Z,1006.00
2018-09-10T00:16:59.324Z,1005.99
2018-09-10T00:17:59.305Z,1005.98
2018-09-10T00:18:59.290Z,1005.96
2018-09-10T00:19:59.272Z,1005.99
2018-09-10T00:20:59.257Z,1005.97
2018-09-10T00:21:59.236Z,1005.96
2018-09-10T00:22:59.221Z,1005.96
2018-09-10T00:23:59.201Z,1005.94
2018-09-10T00:24:59.180Z,1005.97
2018-09-10T00:25:59.165Z,1005.95
2018-09-10T00:26:59.146Z,1005.92
2018-09-10T00:27:59.132Z,1005.89
2018-09-10T00:28:59.113Z,1005.86
2018-09-10T00:29:59.092Z,1005.83
2018-09-10T00:30:59.076Z,1005.84
2018-09-10T00:31:59.059Z,1005.82
2018-09-10T00:32:59.040Z,1005.80
2018-09-10T00:33:59.021Z,1005.77
2018-09-10T00:34:59.004Z,1005.80
2018-09-10T00:35:58.990Z,1005.82
2018-09-10T00:36:58.967Z,1005.82
2018-09-10T00:37:58.951Z,1005.83
2018-09-10T00:38:58.940Z,1005.84
2018-09-10T00:39:58.916Z,1005.87
2018-09-10T00:40:58.891Z,1005.87
2018-09-10T00:41:58.879Z,1005.89
2018-09-10T00:42:58.858Z,1005.89
2018-09-10T00:43:58.844Z,1005.90
2018-09-10T00:44:58.823Z,1005.91
2018-09-10T00:45:58.802Z,1005.91
2018-09-10T00:46:58.791Z,1005.93
2018-09-10T00:47:58.772Z,1005.92
2018-09-10T00:48:58.752Z,1005.92
2018-09-10T00:49:58.735Z,1005.91
2018-09-10T00:50:58.715Z,1005.95
2018-09-10T00:51:58.694Z,1005.96
2018-09-10T00:52:58.696Z,1005.94
2018-09-10T00:53:58.662Z,1005.97
2018-09-10T00:54:58.645Z,1005.96
2018-09-10T00:55:58.626Z,1005.95
2018-09-10T00:56:58.611Z,1005.95
2018-09-10T00:57:58.598Z,1005.95
2018-09-10T00:58:58.573Z,1005.99
2018-09-10T00:59:58.581Z,1006.00
2018-09-10T01:00:58.541Z,1006.00
2018-09-10T01:01:58.525Z,1005.97
2018-09-10T01:02:58.514Z,1006.01
2018-09-10T01:03:58.482Z,1006.02
2018-09-10T01:04:58.469Z,1006.03
2018-09-10T01:05:58.448Z,1006.01
2018-09-10T01:06:58.427Z,1006.01
2018-09-10T01:07:58.414Z,1006.06
2018-09-10T01:10:30.542Z,1006.11
2018-09-10T01:11:30.497Z,1006.13
2018-09-10T01:13:24.858Z,1006.11
2018-09-10T01:14:24.822Z,1006.12
2018-09-10T01:15:24.802Z,1006.09
2018-09-10T01:16:24.783Z,1006.04
2018-09-10T01:17:24.766Z,1006.07
2018-09-10T01:18:24.746Z,1006.02
2018-09-10T01:19:24.735Z,1006.03
2018-09-10T01:20:24.713Z,1006.05
2018-09-10T01:21:24.697Z,1006.05
2018-09-10T01:22:24.674Z,1006.03
2018-09-10T01:23:24.659Z,1006.04
2018-09-10T01:24:24.641Z,1006.05
2018-09-10T01:25:24.624Z,1006.05
2018-09-10T01:26:24.608Z,1006.08
2018-09-10T01:27:24.589Z,1006.06
2018-09-10T01:28:24.572Z,1006.04
2018-09-10T01:29:24.553Z,1006.05
2018-09-10T01:30:24.533Z,1006.07
2018-09-10T01:31:24.517Z,1006.14
2018-09-10T01:32:24.498Z,1006.10
2018-09-10T01:33:24.483Z,1006.10
2018-09-10T01:34:24.465Z,1006.09
2018-09-10T01:35:24.444Z,1006.11
2018-09-10T01:36:24.426Z,1006.14
2018-09-10T01:37:24.409Z,1006.14
2018-09-10T01:38:24.390Z,1006.11
2018-09-10T01:39:24.376Z,1006.14
2018-09-10T01:40:24.352Z,1006.13
2018-09-10T01:41:24.339Z,1006.12
2018-09-10T01:42:24.319Z,1006.10
2018-09-10T01:43:24.300Z,1006.13
2018-09-10T01:44:24.284Z,1006.16
2018-09-10T01:45:24.264Z,1006.14
2018-09-10T01:46:24.245Z,1006.18
2018-09-10T01:47:24.229Z,1006.18
2018-09-10T01:48:24.212Z,1006.18
2018-09-10T01:49:24.191Z,1006.16
2018-09-10T01:50:24.173Z,1006.16
2018-09-10T01:51:24.155Z,1006.16
2018-09-10T01:52:24.134Z,1006.15
2018-09-10T01:53:24.118Z,1006.13
2018-09-10T01:54:24.100Z,1006.15
2018-09-10T01:55:24.083Z,1006.15
2018-09-10T01:56:24.066Z,1006.18
2018-09-10T01:57:24.044Z,1006.17
2018-09-10T01:58:24.026Z,1006.15
2018-09-10T01:59:24.013Z,1006.12
2018-09-10T02:00:23.986Z,1006.14
2018-09-10T02:01:23.974Z,1006.09
2018-09-10T02:02:23.956Z,1006.13
2018-09-10T02:03:23.937Z,1006.13
2018-09-10T02:04:23.916Z,1006.15
2018-09-10T02:05:23.901Z,1006.16
2018-09-10T02:06:23.882Z,1006.15
2018-09-10T02:07:23.861Z,1006.15
2018-09-10T02:08:23.839Z,1006.11
2018-09-10T02:09:23.830Z,1006.15
2018-09-10T02:10:23.810Z,1006.09
2018-09-10T02:11:23.794Z,1006.15
2018-09-10T02:12:23.770Z,1006.19
2018-09-10T02:13:23.753Z,1006.18
2018-09-10T02:14:23.731Z,1006.19
2018-09-10T02:15:23.713Z,1006.23
2018-09-10T02:16:23.699Z,1006.21
2018-09-10T02:17:23.678Z,1006.20
2018-09-10T02:18:23.659Z,1006.16
2018-09-10T02:19:23.645Z,1006.19
2018-09-10T02:20:23.683Z,1006.23
2018-09-10T02:21:23.606Z,1006.23
2018-09-10T02:22:24.344Z,1006.20
2018-09-10T02:23:23.569Z,1006.20
2018-09-10T02:24:23.552Z,1006.22
2018-09-10T02:25:23.536Z,1006.21
2018-09-10T02:26:23.512Z,1006.14
2018-09-10T02:27:23.555Z,1006.12
2018-09-10T02:28:23.484Z,1006.12
2018-09-10T02:29:23.460Z,1006.10
2018-09-10T02:30:23.440Z,1006.10
2018-09-10T02:31:23.426Z,1006.09
2018-09-10T02:32:23.403Z,1006.08
2018-09-10T02:33:23.389Z,1006.07
2018-09-10T02:34:23.372Z,1006.08
2018-09-10T02:35:23.352Z,1006.01
2018-09-10T02:36:23.331Z,1005.99
2018-09-10T02:37:23.315Z,1005.98
2018-09-10T02:38:23.310Z,1006.01
2018-09-10T02:39:23.276Z,1006.00
2018-09-10T02:40:23.259Z,1005.99
2018-09-10T02:41:23.239Z,1005.99
2018-09-10T02:42:23.218Z,1005.99
2018-09-10T02:43:23.202Z,1005.94
2018-09-10T02:44:23.184Z,1005.94
2018-09-10T02:45:23.165Z,1005.96
2018-09-10T02:46:23.145Z,1005.98
2018-09-10T02:47:23.128Z,1005.96
2018-09-10T02:48:23.113Z,1005.97
2018-09-10T02:49:23.089Z,1005.92
2018-09-10T02:50:23.070Z,1005.93
2018-09-10T02:51:23.054Z,1005.94
2018-09-10T02:52:23.038Z,1005.92
2018-09-10T02:53:23.020Z,1005.94
2018-09-10T02:54:22.993Z,1005.91
2018-09-10T02:55:22.981Z,1005.91
2018-09-10T02:56:22.962Z,1005.93
2018-09-10T02:57:22.964Z,1005.91
2018-09-10T02:58:22.923Z,1005.92
2018-09-10T02:59:22.907Z,1005.95
2018-09-10T03:00:22.889Z,1005.94
2018-09-10T03:01:22.869Z,1005.99
2018-09-10T03:02:22.848Z,1005.97
2018-09-10T03:03:22.830Z,1006.03
2018-09-10T03:04:22.815Z,1006.05
2018-09-10T03:05:22.799Z,1006.04
2018-09-10T03:06:22.789Z,1006.04
2018-09-10T03:07:22.758Z,1006.05
2018-09-10T03:08:22.742Z,1006.03
2018-09-10T03:09:23.426Z,1006.06
2018-09-10T03:10:22.703Z,1006.08
2018-09-10T03:11:22.686Z,1006.08
2018-09-10T03:12:22.667Z,1006.11
2018-09-10T03:13:22.660Z,1006.13
2018-09-10T03:14:22.626Z,1006.16
2018-09-10T03:15:22.605Z,1006.14
2018-09-10T03:16:22.602Z,1006.17
2018-09-10T03:17:22.600Z,1006.13
2018-09-10T03:18:22.555Z,1006.13
2018-09-10T03:19:22.536Z,1006.11
2018-09-10T03:20:22.522Z,1006.12
2018-09-10T03:21:22.504Z,1006.16
2018-09-10T03:22:22.482Z,1006.19
2018-09-10T03:23:22.464Z,1006.17
2018-09-10T03:24:22.440Z,1006.21
2018-09-10T03:25:22.429Z,1006.18
2018-09-10T03:26:22.411Z,1006.19
2018-09-10T03:27:22.391Z,1006.26
2018-09-10T03:28:22.370Z,1006.20
2018-09-10T03:29:22.347Z,1006.20
2018-09-10T03:30:22.343Z,1006.23
2018-09-10T03:31:22.323Z,1006.27
2018-09-10T03:32:22.297Z,1006.27
2018-09-10T03:33:22.323Z,1006.32
2018-09-10T03:34:22.260Z,1006.32
2018-09-10T03:35:22.241Z,1006.29
2018-09-10T03:36:22.225Z,1006.31
2018-09-10T03:37:22.200Z,1006.35
2018-09-10T03:38:22.185Z,1006.40
2018-09-10T03:39:22.166Z,1006.41
2018-09-10T03:40:22.145Z,1006.41
2018-09-10T03:41:22.133Z,1006.40
2018-09-10T03:42:22.113Z,1006.43
2018-09-10T03:43:22.091Z,1006.46
2018-09-10T03:44:22.075Z,1006.46
2018-09-10T03:45:22.059Z,1006.48
2018-09-10T03:46:22.036Z,1006.47
2018-09-10T03:47:22.129Z,1006.50
2018-09-10T03:50:34.170Z,1006.56
2018-09-10T03:50:55.070Z,1006.59
2018-09-10T03:51:55.049Z,1006.57
2018-09-10T03:52:55.032Z,1006.58
2018-09-10T03:53:55.012Z,1006.60
2018-09-10T03:54:54.996Z,1006.63
2018-09-10T03:55:54.972Z,1006.67
2018-09-10T03:56:54.958Z,1006.69
2018-09-10T03:57:54.940Z,1006.68
2018-09-10T03:58:54.921Z,1006.66
2018-09-10T03:59:54.902Z,1006.70
2018-09-10T04:00:54.885Z,1006.69
2018-09-10T04:01:54.867Z,1006.73
2018-09-10T04:02:54.845Z,1006.72
2018-09-10T04:03:54.828Z,1006.74
2018-09-10T04:04:54.807Z,1006.65
2018-09-10T04:05:54.790Z,1006.63
2018-09-10T04:06:54.772Z,1006.59
2018-09-10T04:07:54.757Z,1006.65
2018-09-10T04:08:54.736Z,1006.64
2018-09-10T04:09:54.715Z,1006.65
2018-09-10T04:10:54.700Z,1006.68
2018-09-10T04:11:54.678Z,1006.70
2018-09-10T04:12:54.663Z,1006.73
2018-09-10T04:13:54.643Z,1006.79
2018-09-10T04:14:54.625Z,1006.78
2018-09-10T04:15:54.606Z,1006.80
2018-09-10T04:16:54.584Z,1006.79
2018-09-10T04:17:54.567Z,1006.77
2018-09-10T04:18:54.550Z,1006.79
2018-09-10T04:19:54.532Z,1006.78
2018-09-10T04:20:54.519Z,1006.75
2018-09-10T04:21:54.499Z,1006.73
2018-09-10T04:22:54.495Z,1006.76
2018-09-10T04:23:54.458Z,1006.67
2018-09-10T04:24:54.441Z,1006.64
2018-09-10T04:25:54.452Z,1006.64
2018-09-10T04:26:54.406Z,1006.64
2018-09-10T04:27:54.382Z,1006.65
2018-09-10T04:28:54.366Z,1006.65
2018-09-10T04:29:54.343Z,1006.66
2018-09-10T04:30:54.330Z,1006.67
2018-09-10T04:31:54.309Z,1006.69
2018-09-10T04:32:54.294Z,1006.70
2018-09-10T04:33:54.268Z,1006.77
2018-09-10T04:34:54.255Z,1006.73
2018-09-10T04:35:54.275Z,1006.76
2018-09-10T04:36:54.218Z,1006.76
2018-09-10T04:37:54.196Z,1006.77
2018-09-10T04:38:54.181Z,1006.72
2018-09-10T04:39:54.166Z,1006.76
2018-09-10T04:40:54.144Z,1006.78
2018-09-10T04:41:54.126Z,1006.79
2018-09-10T04:42:54.103Z,1006.77
2018-09-10T04:43:54.088Z,1006.75
2018-09-10T04:44:54.067Z,1006.74
2018-09-10T04:45:54.056Z,1006.66
2018-09-10T04:46:54.041Z,1006.68
2018-09-10T04:47:54.013Z,1006.67
2018-09-10T04:48:53.998Z,1006.69
2018-09-10T04:49:54.113Z,1006.69
2018-09-10T04:50:53.954Z,1006.69
2018-09-10T04:51:53.939Z,1006.68
2018-09-10T04:52:53.927Z,1006.70
2018-09-10T04:53:53.903Z,1006.74
2018-09-10T04:54:53.885Z,1006.73
2018-09-10T04:55:53.867Z,1006.72
2018-09-10T04:56:53.848Z,1006.70
2018-09-10T04:57:53.833Z,1006.71
2018-09-10T04:58:53.810Z,1006.72
2018-09-10T04:59:53.790Z,1006.79
2018-09-10T05:00:53.774Z,1006.87
2018-09-10T05:01:53.754Z,1006.82
2018-09-10T05:02:53.736Z,1006.88
2018-09-10T05:03:53.715Z,1006.87
2018-09-10T05:04:53.718Z,1006.82
2018-09-10T05:05:53.683Z,1006.85
2018-09-10T05:06:53.664Z,1006.85
2018-09-10T05:07:53.643Z,1006.84
2018-09-10T05:08:53.629Z,1006.89
2018-09-10T05:09:53.662Z,1006.88
2018-09-10T05:10:53.585Z,1006.86
2018-09-10T05:11:53.564Z,1006.90
2018-09-10T05:12:53.550Z,1006.87
2018-09-10T05:13:53.530Z,1006.85
2018-09-10T05:14:53.512Z,1006.89
2018-09-10T05:15:53.489Z,1006.90
2018-09-10T05:16:53.473Z,1006.88
2018-09-10T05:17:53.459Z,1006.92
2018-09-10T05:18:53.443Z,1006.95
2018-09-10T05:19:53.420Z,1006.97
2018-09-10T05:20:53.399Z,1007.03
2018-09-10T05:21:53.393Z,1007.03
2018-09-10T05:22:53.361Z,1007.04
2018-09-10T05:23:53.346Z,1007.08
2018-09-10T05:24:53.329Z,1007.06
2018-09-10T05:25:53.307Z,1007.07
2018-09-10T05:26:53.286Z,1007.04
2018-09-10T05:27:53.265Z,1007.03
2018-09-10T05:28:53.249Z,1007.02
2018-09-10T05:29:53.331Z,1006.96
2018-09-10T05:30:53.206Z,1006.97
2018-09-10T05:31:53.197Z,1006.98
2018-09-10T05:32:53.193Z,1006.99
2018-09-10T05:33:53.154Z,1006.93
2018-09-10T05:34:53.138Z,1006.95
2018-09-10T05:35:53.118Z,1006.98
2018-09-10T05:36:53.106Z,1007.01
2018-09-10T05:37:53.083Z,1007.04
2018-09-10T05:38:53.062Z,1007.07
2018-09-10T05:39:53.045Z,1007.12
2018-09-10T05:40:53.029Z,1007.14
2018-09-10T05:41:53.019Z,1007.11
2018-09-10T05:42:53.026Z,1007.14
2018-09-10T05:43:52.971Z,1007.07
2018-09-10T05:44:52.953Z,1007.07
2018-09-10T05:45:52.936Z,1007.09
2018-09-10T05:46:52.912Z,1007.16
2018-09-10T05:47:52.899Z,1007.18
2018-09-10T05:48:52.880Z,1007.24
2018-09-10T05:49:52.861Z,1007.24
2018-09-10T05:50:52.851Z,1007.28
2018-09-10T05:51:52.824Z,1007.32
2018-09-10T05:52:52.803Z,1007.31
2018-09-10T05:53:52.785Z,1007.30
2018-09-10T05:54:52.769Z,1007.37
2018-09-10T05:55:52.746Z,1007.43
2018-09-10T05:56:52.725Z,1007.46
2018-09-10T05:57:52.710Z,1007.48
2018-09-10T05:58:52.691Z,1007.49
2018-09-10T05:59:52.675Z,1007.49
2018-09-10T06:00:52.656Z,1007.52
2018-09-10T06:01:52.635Z,1007.53
2018-09-10T06:02:52.624Z,1007.57
2018-09-10T06:03:52.601Z,1007.65
2018-09-10T06:04:52.585Z,1007.65
2018-09-10T06:05:52.565Z,1007.68
2018-09-10T06:06:52.544Z,1007.70
2018-09-10T06:07:52.528Z,1007.70
2018-09-10T06:08:52.514Z,1007.70
2018-09-10T06:09:52.491Z,1007.70
2018-09-10T06:10:52.468Z,1007.65
2018-09-10T06:11:52.450Z,1007.63
2018-09-10T06:12:52.433Z,1007.65
2018-09-10T06:13:52.421Z,1007.58
2018-09-10T06:14:52.396Z,1007.55
2018-09-10T06:15:52.375Z,1007.56
2018-09-10T06:16:52.362Z,1007.53
2018-09-10T06:17:52.340Z,1007.51
2018-09-10T06:18:52.317Z,1007.52
2018-09-10T06:19:52.300Z,1007.50
2018-09-10T06:20:52.284Z,1007.48
2018-09-10T06:21:52.265Z,1007.42
2018-09-10T06:22:52.246Z,1007.47
2018-09-10T06:23:52.228Z,1007.42
2018-09-10T06:24:52.207Z,1007.43
2018-09-10T06:25:52.190Z,1007.45
2018-09-10T06:26:52.174Z,1007.46
2018-09-10T06:27:52.152Z,1007.48
2018-09-10T06:28:52.135Z,1007.46
2018-09-10T06:29:52.118Z,1007.47
2018-09-10T06:30:52.101Z,1007.42
2018-09-10T06:31:52.079Z,1007.42
2018-09-10T06:32:52.062Z,1007.41
2018-09-10T06:33:52.043Z,1007.47
2018-09-10T06:34:52.028Z,1007.49
2018-09-10T06:35:52.020Z,1007.55
2018-09-10T06:36:51.984Z,1007.60
2018-09-10T06:37:51.969Z,1007.66
2018-09-10T06:38:53.061Z,1007.72
2018-09-10T06:39:52.699Z,1007.72
2018-09-10T06:40:51.989Z,1007.73
2018-09-10T06:41:52.006Z,1007.70
2018-09-10T06:42:51.936Z,1007.68
2018-09-10T06:43:51.928Z,1007.65
2018-09-10T06:44:54.768Z,1007.64
2018-09-10T06:45:51.908Z,1007.60
2018-09-10T06:46:52.747Z,1007.59
2018-09-10T06:47:51.890Z,1007.54
2018-09-10T06:48:51.806Z,1007.53
2018-09-10T06:49:51.811Z,1007.48
2018-09-10T06:50:51.759Z,1007.41
2018-09-10T06:51:51.790Z,1007.35
2018-09-10T06:52:51.772Z,1007.37
2018-09-10T06:53:51.758Z,1007.40
2018-09-10T06:54:51.677Z,1007.43
2018-09-10T06:55:51.648Z,1007.45
2018-09-10T06:56:51.702Z,1007.50
2018-09-10T06:57:51.679Z,1007.53
2018-09-10T06:58:51.610Z,1007.52
2018-09-10T06:59:51.579Z,1007.53
2018-09-10T07:00:51.561Z,1007.55
2018-09-10T07:01:51.538Z,1007.54
2018-09-10T07:02:51.520Z,1007.56
2018-09-10T07:03:51.503Z,1007.55
2018-09-10T07:04:51.485Z,1007.55
2018-09-10T07:05:51.466Z,1007.58
2018-09-10T07:06:51.446Z,1007.56
2018-09-10T07:07:51.430Z,1007.61
2018-09-10T07:08:51.416Z,1007.68
2018-09-10T07:09:51.394Z,1007.72
2018-09-10T07:10:51.376Z,1007.72
2018-09-10T07:11:51.431Z,1007.77
2018-09-10T07:12:51.395Z,1007.81
2018-09-10T07:13:51.324Z,1007.84
2018-09-10T07:14:51.308Z,1007.85
2018-09-10T07:15:51.289Z,1007.90
2018-09-10T07:16:51.317Z,1007.90
2018-09-10T07:17:51.254Z,1007.94
2018-09-10T07:18:51.279Z,1007.91
2018-09-10T07:19:51.220Z,1007.90
2018-09-10T07:20:51.202Z,1007.86
2018-09-10T07:21:51.184Z,1007.82
2018-09-10T07:22:51.168Z,1007.88
2018-09-10T07:23:51.145Z,1007.88
2018-09-10T07:24:51.132Z,1007.89
2018-09-10T07:25:51.116Z,1007.90
2018-09-10T07:26:51.097Z,1007.93
2018-09-10T07:27:51.085Z,1007.94
2018-09-10T07:28:51.071Z,1007.95
2018-09-10T07:29:51.043Z,1007.93
2018-09-10T07:30:51.025Z,1007.93
2018-09-10T07:31:51.014Z,1007.95
2018-09-10T07:32:50.997Z,1007.91
2018-09-10T07:33:50.976Z,1007.94
2018-09-10T07:34:50.959Z,1007.85
2018-09-10T07:35:50.942Z,1007.82
2018-09-10T07:36:50.928Z,1007.84
2018-09-10T07:37:50.907Z,1007.86
2018-09-10T07:38:50.894Z,1007.87
2018-09-10T07:39:50.873Z,1007.85
2018-09-10T07:40:50.858Z,1007.81
2018-09-10T07:41:50.837Z,1007.78
2018-09-10T07:42:50.823Z,1007.80
2018-09-10T07:43:50.832Z,1007.84
2018-09-10T07:44:50.789Z,1007.84
2018-09-10T07:45:50.782Z,1007.85
2018-09-10T07:46:50.766Z,1007.85
2018-09-10T07:47:50.778Z,1007.87
2018-09-10T07:48:52.832Z,1007.84
2018-09-10T07:49:50.739Z,1007.79
2018-09-10T07:50:50.685Z,1007.78
2018-09-10T07:51:50.673Z,1007.77
2018-09-10T07:52:50.654Z,1007.78
2018-09-10T07:53:50.646Z,1007.72
2018-09-10T07:54:50.615Z,1007.75
2018-09-10T07:55:50.606Z,1007.72
2018-09-10T07:56:50.589Z,1007.77
2018-09-10T07:57:50.571Z,1007.73
2018-09-10T07:58:50.552Z,1007.75
2018-09-10T07:59:50.535Z,1007.76
2018-09-10T08:00:50.569Z,1007.73
2018-09-10T08:01:50.502Z,1007.77
2018-09-10T08:02:50.496Z,1007.71
2018-09-10T08:03:50.470Z,1007.73
2018-09-10T08:04:50.452Z,1007.73
2018-09-10T08:05:50.439Z,1007.75
2018-09-10T08:06:50.421Z,1007.78
2018-09-10T08:07:50.405Z,1007.82
2018-09-10T08:08:50.389Z,1007.85
2018-09-10T08:09:50.371Z,1007.88
2018-09-10T08:10:50.360Z,1007.95
2018-09-10T08:11:50.340Z,1007.95
2018-09-10T08:12:50.323Z,1007.95
2018-09-10T08:13:50.307Z,1007.94
2018-09-10T08:14:50.296Z,1007.96
2018-09-10T08:15:50.273Z,1007.93
2018-09-10T08:16:50.266Z,1007.93
2018-09-10T08:17:50.239Z,1007.94
2018-09-10T08:18:50.239Z,1008.06
2018-09-10T08:19:50.217Z,1008.07
2018-09-10T08:20:50.198Z,1008.05
2018-09-10T08:21:50.187Z,1008.03
2018-09-10T08:22:50.170Z,1008.05
2018-09-10T08:23:50.145Z,1008.03
2018-09-10T08:24:50.125Z,1008.06
2018-09-10T08:25:50.112Z,1008.05
2018-09-10T08:26:50.094Z,1008.10
2018-09-10T08:27:50.081Z,1008.10
2018-09-10T08:28:50.063Z,1008.13
2018-09-10T08:29:50.050Z,1008.17
2018-09-10T08:30:50.034Z,1008.15
2018-09-10T08:31:50.018Z,1008.14
2018-09-10T08:32:50.003Z,1008.16
2018-09-10T08:33:49.983Z,1008.18
2018-09-10T08:34:49.968Z,1008.15
2018-09-10T08:35:49.953Z,1008.18
2018-09-10T08:36:49.948Z,1008.24
2018-09-10T08:37:49.919Z,1008.22
2018-09-10T08:38:49.902Z,1008.24
2018-09-10T08:39:49.893Z,1008.22
2018-09-10T08:40:49.879Z,1008.22
2018-09-10T08:41:49.864Z,1008.22
2018-09-10T08:42:49.901Z,1008.20
2018-09-10T08:43:49.834Z,1008.19
2018-09-10T08:44:49.814Z,1008.16
2018-09-10T08:45:49.796Z,1008.17
2018-09-10T08:46:49.783Z,1008.21
2018-09-10T08:47:49.769Z,1008.25
2018-09-10T08:48:49.759Z,1008.26
2018-09-10T08:49:49.741Z,1008.28
2018-09-10T08:50:49.748Z,1008.32
2018-09-10T08:51:49.708Z,1008.33
2018-09-10T08:52:49.695Z,1008.33
2018-09-10T08:53:49.761Z,1008.31
2018-09-10T08:54:49.899Z,1008.31
2018-09-10T08:55:49.880Z,1008.30
2018-09-10T08:56:49.632Z,1008.34
2018-09-10T08:57:49.617Z,1008.36
2018-09-10T08:58:49.604Z,1008.36
2018-09-10T08:59:49.592Z,1008.35
2018-09-10T09:00:49.577Z,1008.31
2018-09-10T09:01:49.580Z,1008.32
2018-09-10T09:02:49.544Z,1008.31
2018-09-10T09:03:49.532Z,1008.32
2018-09-10T09:04:49.517Z,1008.23
2018-09-10T09:05:49.504Z,1008.25
2018-09-10T09:06:49.484Z,1008.22
2018-09-10T09:07:49.490Z,1008.24
2018-09-10T09:08:49.456Z,1008.26
2018-09-10T09:09:49.448Z,1008.31
2018-09-10T09:10:49.424Z,1008.34
2018-09-10T09:11:49.423Z,1008.39
2018-09-10T09:12:49.398Z,1008.34
2018-09-10T09:13:49.383Z,1008.31
2018-09-10T09:14:49.368Z,1008.32
2018-09-10T09:15:49.356Z,1008.32
2018-09-10T09:16:49.345Z,1008.36
2018-09-10T09:17:49.326Z,1008.40
2018-09-10T09:18:49.313Z,1008.40
2018-09-10T09:19:49.301Z,1008.38
2018-09-10T09:20:49.286Z,1008.37
2018-09-10T09:21:49.273Z,1008.33
2018-09-10T09:22:49.259Z,1008.36
2018-09-10T09:23:49.246Z,1008.40
2018-09-10T09:24:49.224Z,1008.41
2018-09-10T09:25:49.218Z,1008.42
2018-09-10T09:26:49.198Z,1008.36
2018-09-10T09:27:49.196Z,1008.34
2018-09-10T09:28:49.168Z,1008.35
2018-09-10T09:29:49.190Z,1008.41
2018-09-10T09:30:49.146Z,1008.41
2018-09-10T09:31:49.191Z,1008.43
2018-09-10T09:32:49.124Z,1008.42
2018-09-10T09:33:49.108Z,1008.41
2018-09-10T09:34:49.093Z,1008.39
2018-09-10T09:35:49.080Z,1008.44
2018-09-10T09:36:49.068Z,1008.40
2018-09-10T09:37:49.053Z,1008.44
2018-09-10T09:38:49.039Z,1008.44
2018-09-10T09:39:49.030Z,1008.44
2018-09-10T09:40:49.015Z,1008.41
2018-09-10T09:41:49.001Z,1008.37
2018-09-10T09:42:48.987Z,1008.41
2018-09-10T09:43:48.969Z,1008.40
2018-09-10T09:44:48.962Z,1008.39
2018-09-10T09:45:48.942Z,1008.40
2018-09-10T09:46:48.932Z,1008.39
2018-09-10T09:47:48.934Z,1008.44
2018-09-10T09:48:48.928Z,1008.50
2018-09-10T09:49:48.889Z,1008.46
2018-09-10T09:50:48.881Z,1008.44
2018-09-10T09:51:48.864Z,1008.39
2018-09-10T09:52:48.859Z,1008.41
2018-09-10T09:53:48.844Z,1008.34
2018-09-10T09:54:48.830Z,1008.32
2018-09-10T09:55:48.818Z,1008.34
2018-09-10T09:56:48.818Z,1008.36
2018-09-10T09:57:48.790Z,1008.41
2018-09-10T09:58:48.776Z,1008.37
2018-09-10T09:59:48.767Z,1008.34
2018-09-10T10:00:48.753Z,1008.37
2018-09-10T10:01:48.740Z,1008.39
2018-09-10T10:02:48.732Z,1008.36
2018-09-10T10:03:48.727Z,1008.37
2018-09-10T10:04:48.702Z,1008.34
2018-09-10T10:05:48.685Z,1008.34
2018-09-10T10:06:48.681Z,1008.33
2018-09-10T10:07:48.671Z,1008.32
2018-09-10T10:08:48.656Z,1008.34
2018-09-10T10:09:48.641Z,1008.34
2018-09-10T10:10:48.625Z,1008.39
2018-09-10T10:11:48.757Z,1008.39
2018-09-10T10:12:48.668Z,1008.41
2018-09-10T10:13:48.606Z,1008.42
2018-09-10T10:14:48.576Z,1008.40
2018-09-10T10:15:48.564Z,1008.39
2018-09-10T10:16:48.549Z,1008.40
2018-09-10T10:17:48.542Z,1008.44
2018-09-10T10:18:48.529Z,1008.51
2018-09-10T10:19:48.526Z,1008.50
2018-09-10T10:20:48.508Z,1008.55
2018-09-10T10:21:48.489Z,1008.54
2018-09-10T10:22:48.485Z,1008.50
2018-09-10T10:23:48.474Z,1008.49
2018-09-10T10:24:48.482Z,1008.51
2018-09-10T10:25:48.449Z,1008.50
2018-09-10T10:26:48.435Z,1008.50
2018-09-10T10:27:48.428Z,1008.52
2018-09-10T10:28:48.407Z,1008.54
2018-09-10T10:29:48.397Z,1008.57
2018-09-10T10:30:48.387Z,1008.56
2018-09-10T10:31:48.371Z,1008.59
2018-09-10T10:32:48.351Z,1008.52
2018-09-10T10:33:48.343Z,1008.50
2018-09-10T10:34:48.333Z,1008.49
2018-09-10T10:35:48.356Z,1008.49
2018-09-10T10:36:48.300Z,1008.52
2018-09-10T10:37:48.298Z,1008.49
2018-09-10T10:38:48.281Z,1008.45
2018-09-10T10:39:48.272Z,1008.45
2018-09-10T10:40:48.275Z,1008.44
2018-09-10T10:41:48.261Z,1008.41
2018-09-10T10:42:48.230Z,1008.43
2018-09-10T10:43:48.213Z,1008.40
2018-09-10T10:44:48.203Z,1008.41
2018-09-10T10:45:48.194Z,1008.39
2018-09-10T10:46:48.184Z,1008.38
2018-09-10T10:47:48.164Z,1008.41
2018-09-10T10:48:48.153Z,1008.46
2018-09-10T10:49:48.150Z,1008.44
2018-09-10T10:50:48.139Z,1008.45
2018-09-10T10:51:48.115Z,1008.47
2018-09-10T10:52:48.101Z,1008.52
2018-09-10T10:53:48.107Z,1008.49
2018-09-10T10:54:48.077Z,1008.56
2018-09-10T10:55:48.061Z,1008.58
2018-09-10T10:56:48.046Z,1008.53
2018-09-10T10:57:48.034Z,1008.52
2018-09-10T10:58:48.035Z,1008.51
2018-09-10T10:59:48.009Z,1008.50
2018-09-10T11:00:48.001Z,1008.50
2018-09-10T11:01:48.013Z,1008.48
2018-09-10T11:02:47.971Z,1008.48
2018-09-10T11:03:47.955Z,1008.47
2018-09-10T11:04:47.949Z,1008.50
2018-09-10T11:05:47.949Z,1008.50
2018-09-10T11:06:47.922Z,1008.51
2018-09-10T11:07:47.922Z,1008.52
2018-09-10T11:08:47.897Z,1008.50
2018-09-10T11:09:47.895Z,1008.47
2018-09-10T11:10:47.878Z,1008.47
2018-09-10T11:11:47.858Z,1008.45
2018-09-10T11:12:47.848Z,1008.41
2018-09-10T11:13:47.828Z,1008.39
2018-09-10T11:14:47.815Z,1008.37
2018-09-10T11:15:47.807Z,1008.40
2018-09-10T11:16:47.813Z,1008.46
2018-09-10T11:17:47.783Z,1008.52
2018-09-10T11:18:47.771Z,1008.47
2018-09-10T11:19:47.774Z,1008.48
2018-09-10T11:20:47.739Z,1008.47
2018-09-10T11:21:47.742Z,1008.42
2018-09-10T11:22:47.744Z,1008.45
2018-09-10T11:23:47.715Z,1008.41
2018-09-10T11:24:47.713Z,1008.41
2018-09-10T11:25:47.682Z,1008.35
2018-09-10T11:26:47.667Z,1008.36
2018-09-10T11:27:47.713Z,1008.32
2018-09-10T11:28:47.645Z,1008.32
2018-09-10T11:29:47.631Z,1008.33
2018-09-10T11:30:47.646Z,1008.34
2018-09-10T11:31:47.600Z,1008.29
2018-09-10T11:32:47.600Z,1008.28
2018-09-10T11:33:47.579Z,1008.21
2018-09-10T11:34:47.595Z,1008.27
2018-09-10T11:35:47.560Z,1008.29
2018-09-10T11:36:47.551Z,1008.36
2018-09-10T11:37:47.534Z,1008.40
2018-09-10T11:38:47.519Z,1008.42
2018-09-10T11:39:47.510Z,1008.41
2018-09-10T11:40:47.501Z,1008.38
2018-09-10T11:41:47.494Z,1008.33
2018-09-10T11:42:47.472Z,1008.36
2018-09-10T11:43:47.463Z,1008.37
2018-09-10T11:44:47.457Z,1008.36
2018-09-10T11:45:47.434Z,1008.29
2018-09-10T11:46:47.453Z,1008.35
2018-09-10T11:47:47.412Z,1008.28
2018-09-10T11:48:47.397Z,1008.30
2018-09-10T11:49:47.388Z,1008.32
2018-09-10T11:50:47.385Z,1008.34
2018-09-10T11:51:47.395Z,1008.32
2018-09-10T11:52:47.352Z,1008.35
2018-09-10T11:53:47.339Z,1008.36
2018-09-10T11:54:47.361Z,1008.34
2018-09-10T11:55:47.429Z,1008.30
2018-09-10T11:56:47.301Z,1008.36
2018-09-10T11:57:47.332Z,1008.36
2018-09-10T11:58:47.290Z,1008.38
2018-09-10T11:59:47.264Z,1008.38
2018-09-10T12:00:47.259Z,1008.39
2018-09-10T12:01:47.287Z,1008.40
2018-09-10T12:02:47.231Z,1008.40
2018-09-10T12:03:47.218Z,1008.41
2018-09-10T12:04:47.215Z,1008.42
2018-09-10T12:05:47.199Z,1008.42
2018-09-10T12:06:47.188Z,1008.51
2018-09-10T12:07:47.180Z,1008.51
2018-09-10T12:08:47.160Z,1008.55
2018-09-10T12:09:47.149Z,1008.55